Time;durP1;ratioP1;P1;durP2;ratioP2;P2;SDS_P1;SDS_P2;PMS_P1;PMS_P2;Temp;Humidity;BMP_temperature;BMP_pressure;BME280_temperature;BME280_humidity;BME280_pressure;Samples;Min_cycle;Max_cycle;Signal;HPM_P1;HPM_P2
2022/10/20 00:01:14;;;;;;;;;;;11.10;99.90;;;10.27;100.00;96107.53;10535293;28;1120;-72
2022/10/20 00:06:17;;;;;;;;;;;11.10;99.90;;;10.35;100.00;96110.78;10525712;28;1896;-73
2022/10/20 00:11:20;;;;;;;;;;;11.20;99.90;;;10.54;100.00;96103.84;10534406;28;1703;-72
2022/10/20 00:16:26;;;;;;;;;;;11.30;99.90;;;10.56;100.00;96101.72;10543161;28;1914;-74
2022/10/20 00:21:29;;;;;;;;;;;11.40;99.90;;;10.64;100.00;96111.16;10541635;28;1651;-72
2022/10/20 00:26:32;;;;;;;;;;;11.50;99.90;;;10.64;100.00;96119.22;10536920;28;1640;-73
2022/10/20 00:31:35;;;;;;;;;;;11.50;99.90;;;10.73;100.00;96123.78;10501845;28;964;-73
2022/10/20 00:36:37;;;;;;;;;;;11.60;99.90;;;10.73;100.00;96120.31;10521680;28;1977;-74
2022/10/20 00:41:40;;;;;;;;;;;11.60;99.90;;;10.62;100.00;96122.16;10543070;28;874;-71
2022/10/20 00:46:44;;;;;;;;;;;11.50;99.90;;;10.62;100.00;96106.03;10535117;28;1581;-73
2022/10/20 00:51:46;;;;;;;;;;;11.50;99.90;;;10.55;100.00;96098.22;10543142;28;1007;-73
2022/10/20 00:56:49;;;;;;;;;;;11.50;99.90;;;10.44;100.00;96077.78;10537375;28;2175;-74
2022/10/20 01:01:53;;;;;;;;;;;11.40;99.90;;;10.46;100.00;96074.81;10542235;28;1164;-73
2022/10/20 01:06:56;;;;;;;;;;;11.30;99.90;;;10.31;100.00;96074.75;10543366;28;1695;-73
2022/10/20 01:11:59;;;;;;;;;;;11.20;99.90;;;10.24;100.00;96067.78;10541187;28;1679;-73
2022/10/20 01:17:03;;;;;;;;;;;11.10;99.90;;;10.26;100.00;96054.06;10541506;28;1910;-72
2022/10/20 01:22:05;;;;;;;;;;;11.20;99.90;;;10.27;100.00;96055.69;10539843;28;1588;-74
2022/10/20 01:27:08;;;;;;;;;;;11.10;99.90;;;10.30;100.00;96063.19;10531176;28;1833;-72
2022/10/20 01:32:11;;;;;;;;;;;11.20;99.90;;;10.27;100.00;96067.25;10498886;28;1394;-74
2022/10/20 01:37:14;;;;;;;;;;;11.10;99.90;;;10.26;100.00;96057.56;10554952;28;1914;-74
2022/10/20 01:42:36;;;;;;;;;;;11.10;99.90;;;10.24;100.00;96064.25;10537731;28;1635;-78
2022/10/20 01:47:39;;;;;;;;;;;11.20;99.90;;;10.21;100.00;96060.19;10539324;28;1144;-74
2022/10/20 01:52:42;;;;;;;;;;;11.10;99.90;;;10.18;100.00;96054.53;10532715;28;1691;-73
2022/10/20 01:57:45;;;;;;;;;;;11.10;99.90;;;10.18;100.00;96041.94;10538552;28;1970;-72
2022/10/20 02:02:48;;;;;;;;;;;11.10;99.90;;;10.13;100.00;96046.47;10537262;28;1518;-75
2022/10/20 02:07:56;;;;;;;;;;;11.10;99.90;;;10.11;100.00;96049.41;10538935;28;1042;-72
2022/10/20 02:12:59;;;;;;;;;;;11.00;99.90;;;10.12;100.00;96043.00;10537487;28;1716;-74
2022/10/20 02:18:02;;;;;;;;;;;11.00;99.90;;;10.02;100.00;96048.31;10539638;28;1972;-72
2022/10/20 02:23:05;;;;;;;;;;;11.00;99.90;;;10.14;100.00;96034.66;10534042;28;1671;-72
2022/10/20 02:28:08;;;;;;;;;;;10.90;99.90;;;10.09;100.00;96032.75;10518634;28;1632;-71
2022/10/20 02:33:11;;;;;;;;;;;11.00;99.90;;;10.05;100.00;96028.97;10507061;28;1632;-72
2022/10/20 02:38:14;;;;;;;;;;;11.00;99.90;;;9.96;100.00;96014.47;10537151;28;1937;-72
2022/10/20 02:43:17;;;;;;;;;;;10.90;99.90;;;10.00;100.00;96002.13;10534035;28;1742;-73
2022/10/20 02:48:21;;;;;;;;;;;10.80;99.90;;;9.94;100.00;96003.97;10534927;28;1631;-75
2022/10/20 02:53:23;;;;;;;;;;;10.90;99.90;;;9.86;100.00;95998.28;10537589;28;1156;-74
2022/10/20 02:58:26;;;;;;;;;;;10.80;99.90;;;9.86;100.00;95995.63;10536771;28;1977;-73
2022/10/20 03:03:29;;;;;;;;;;;10.80;99.90;;;9.82;100.00;95995.34;10529639;28;1773;-75
2022/10/20 03:08:32;;;;;;;;;;;10.70;99.90;;;9.86;100.00;95998.28;10537974;28;1187;-74
2022/10/20 03:13:35;;;;;;;;;;;10.70;99.90;;;9.85;100.00;95999.38;10528940;28;1659;-73
2022/10/20 03:18:38;;;;;;;;;;;10.70;99.90;;;9.84;100.00;96000.44;10536872;28;1906;-76
2022/10/20 03:23:40;;;;;;;;;;;10.80;99.90;;;9.71;100.00;95997.19;10531621;28;1688;-73
2022/10/20 03:28:43;;;;;;;;;;;10.60;99.90;;;9.65;100.00;96002.78;10511004;28;1778;-74
2022/10/20 03:33:46;;;;;;;;;;;10.70;99.90;;;9.72;100.00;96014.09;10507860;28;1485;-74
2022/10/20 03:38:49;;;;;;;;;;;10.60;99.90;;;9.61;100.00;96009.75;10531469;28;1902;-74
2022/10/20 03:43:52;;;;;;;;;;;10.50;99.90;;;9.61;100.00;96005.19;10529399;28;1639;-72
2022/10/20 03:48:54;;;;;;;;;;;10.60;99.90;;;9.51;100.00;95999.78;10535344;28;1148;-71
2022/10/20 03:53:57;;;;;;;;;;;10.50;99.90;;;9.50;100.00;95992.78;10526421;28;1671;-72
2022/10/20 03:59:00;;;;;;;;;;;10.50;99.90;;;9.36;100.00;95999.72;10534329;28;1918;-72
2022/10/20 04:04:03;;;;;;;;;;;10.30;99.90;;;9.36;100.00;95997.03;10520513;28;1581;-72
2022/10/20 04:09:06;;;;;;;;;;;10.50;99.90;;;9.36;100.00;95984.41;10532614;28;1181;-72
2022/10/20 04:14:09;;;;;;;;;;;10.30;99.90;;;9.36;100.00;95986.28;10531464;28;1687;-72
2022/10/20 04:19:12;;;;;;;;;;;10.30;99.90;;;9.29;100.00;95989.22;10534793;28;1976;-72
2022/10/20 04:24:15;;;;;;;;;;;10.20;99.90;;;9.25;100.00;95995.34;10524482;28;1691;-72
2022/10/20 04:29:18;;;;;;;;;;;10.20;99.90;;;9.37;100.00;95993.28;10550491;28;1343;-73
2022/10/20 04:34:21;;;;;;;;;;;10.20;99.90;;;9.28;100.00;95989.44;10531545;28;1766;-73
2022/10/20 04:39:24;;;;;;;;;;;10.20;99.90;;;9.11;100.00;95979.72;10535343;28;1985;-74
2022/10/20 04:44:27;;;;;;;;;;;10.10;99.90;;;9.15;100.00;95979.97;10527923;28;1644;-73
2022/10/20 04:49:30;;;;;;;;;;;10.00;99.90;;;9.08;100.00;95968.69;10526679;28;1680;-76
2022/10/20 04:54:33;;;;;;;;;;;10.00;99.90;;;9.16;100.00;95974.38;10531869;28;1947;-76
2022/10/20 04:59:36;;;;;;;;;;;10.10;99.90;;;9.21;100.00;95969.03;10538797;28;1918;-75
2022/10/20 05:04:38;;;;;;;;;;;10.00;99.90;;;9.34;100.00;95966.94;10539047;28;2077;-72
2022/10/20 05:09:41;;;;;;;;;;;10.10;99.90;;;9.35;100.00;95957.81;10541770;28;1175;-73
2022/10/20 05:14:44;;;;;;;;;;;10.30;99.90;;;9.29;100.00;95962.38;10531805;28;1612;-73
2022/10/20 05:19:47;;;;;;;;;;;10.30;99.90;;;9.19;100.00;95955.06;10539544;28;1901;-73
2022/10/20 05:24:50;;;;;;;;;;;10.20;99.90;;;9.13;100.00;95949.94;10528620;28;1707;-73
2022/10/20 05:29:52;;;;;;;;;;;10.20;99.90;;;9.39;100.00;95950.88;10510913;28;1529;-73
2022/10/20 05:34:55;;;;;;;;;;;10.30;99.90;;;9.27;100.00;95952.97;10515441;28;1792;-72
2022/10/20 05:39:58;;;;;;;;;;;10.20;99.90;;;9.27;100.00;95958.31;10540272;28;1925;-73
2022/10/20 05:45:01;;;;;;;;;;;10.20;99.90;;;9.24;100.00;95956.97;10537961;28;1683;-72
2022/10/20 05:50:04;;;;;;;;;;;10.10;99.90;;;9.32;100.00;95963.72;10540370;28;857;-73
2022/10/20 05:55:11;;;;;;;;;;;10.20;99.90;;;9.34;100.00;95957.03;10536430;28;2274;-72
2022/10/20 06:00:14;;;;;;;;;;;10.20;99.90;;;9.20;100.00;95948.63;10532851;28;1981;-74
2022/10/20 06:05:17;;;;;;;;;;;10.20;99.90;;;9.26;100.00;95944.13;10539026;28;1197;-72
2022/10/20 06:10:20;;;;;;;;;;;10.10;99.90;;;9.39;100.00;95954.38;10524319;28;1718;-73
2022/10/20 06:15:23;;;;;;;;;;;10.20;99.90;;;9.39;100.00;95953.56;10538655;28;823;-74
2022/10/20 06:20:26;;;;;;;;;;;10.30;99.90;;;9.21;100.00;95957.50;10530545;28;1918;-73
2022/10/20 06:25:30;;;;;;;;;;;10.20;99.90;;;9.28;100.00;95957.25;10533960;28;1668;-73
2022/10/20 06:30:32;;;;;;;;;;;10.30;99.90;;;9.16;100.00;95960.97;10539649;28;1116;-74
2022/10/20 06:35:35;;;;;;;;;;;10.20;99.90;;;9.14;100.00;95967.66;10530756;28;1430;-73
2022/10/20 06:40:40;;;;;;;;;;;10.00;99.90;;;9.13;100.00;95966.03;10536165;28;1918;-73
2022/10/20 06:45:43;;;;;;;;;;;10.00;99.90;;;9.00;100.00;95961.94;10537486;28;1085;-72
2022/10/20 06:50:46;;;;;;;;;;;10.00;99.90;;;9.15;100.00;95969.25;10535971;28;1600;-72
2022/10/20 06:55:49;;;;;;;;;;;10.00;99.90;;;9.28;100.00;95954.56;10536619;28;1585;-74
2022/10/20 07:00:52;;;;;;;;;;;10.10;99.90;;;9.42;100.00;95947.69;10536816;28;1917;-75
2022/10/20 07:05:54;;;;;;;;;;;10.30;99.90;;;9.67;100.00;95955.84;10529942;28;1640;-71
2022/10/20 07:10:57;;;;;;;;;;;10.30;99.90;;;9.73;100.00;95946.75;10536873;28;1145;-77
2022/10/20 07:16:00;;;;;;;;;;;10.60;99.90;;;9.85;100.00;95935.75;10536856;28;1585;-73
2022/10/20 07:21:03;;;;;;;;;;;10.60;99.90;;;9.75;100.00;95930.34;10533365;28;1913;-74
2022/10/20 07:26:05;;;;;;;;;;;10.70;99.90;;;9.71;100.00;95948.84;10529644;28;1422;-72
2022/10/20 07:31:08;;;;;;;;;;;10.70;99.90;;;9.86;100.00;95942.75;10496126;28;1156;-76
2022/10/20 07:36:13;;;;;;;;;;;10.70;99.90;;;10.04;100.00;95941.41;10528978;28;1762;-73
2022/10/20 07:41:16;;;;;;;;;;;10.90;99.90;;;10.07;100.00;95932.84;10527458;28;1980;-72
2022/10/20 07:46:19;;;;;;;;;;;10.90;99.90;;;10.08;100.00;95933.66;10535669;28;1346;-73
2022/10/20 07:51:23;;;;;;;;;;;10.90;99.90;;;10.24;100.00;95927.25;10534912;28;1644;-73
2022/10/20 07:56:26;;;;;;;;;;;11.10;99.90;;;10.34;100.00;95921.09;10535440;28;1632;-74
2022/10/20 08:01:29;;;;;;;;;;;11.10;99.90;;;10.19;100.00;95919.16;10536151;28;1984;-73
2022/10/20 08:06:31;;;;;;;;;;;11.20;99.90;;;9.91;100.00;95923.13;10549708;28;1065;-72
2022/10/20 08:11:34;;;;;;;;;;;10.90;99.90;;;10.03;100.00;95926.38;10531199;28;1628;-74
2022/10/20 08:16:37;;;;;;;;;;;10.90;99.90;;;10.42;100.00;95918.66;10528864;28;1126;-73
2022/10/20 08:21:47;;;;;;;;;;;11.00;99.90;;;10.28;100.00;95902.25;10534212;28;1668;-73
2022/10/20 08:26:50;;;;;;;;;;;11.30;99.90;;;10.27;100.00;95903.34;10525934;28;1522;-71
2022/10/20 08:31:53;;;;;;;;;;;11.20;99.90;;;10.39;100.00;95911.16;10493037;28;1138;-73
2022/10/20 08:36:56;;;;;;;;;;;11.20;99.90;;;9.74;100.00;95913.44;10532087;28;1981;-73
2022/10/20 08:41:59;;;;;;;;;;;10.90;99.90;;;10.03;100.00;95910.28;10543677;28;1330;-74
2022/10/20 08:47:10;;;;;;;;;;;10.80;99.90;;;10.60;100.00;95906.56;10537711;28;1620;-72
2022/10/20 08:52:13;;;;;;;;;;;11.20;99.90;;;10.43;100.00;95898.78;10542201;28;1153;-73
2022/10/20 08:57:17;;;;;;;;;;;11.40;99.90;;;9.90;100.00;95892.00;10539490;28;1977;-73
2022/10/20 09:02:19;;;;;;;;;;;11.10;99.90;;;10.35;100.00;95895.81;10541976;28;1144;-72
2022/10/20 09:07:22;;;;;;;;;;;11.00;99.90;;;10.75;100.00;95885.06;10537847;28;1577;-72
2022/10/20 09:12:25;;;;;;;;;;;11.30;99.90;;;10.74;100.00;95894.16;10543833;28;1660;-73
2022/10/20 09:17:32;;;;;;;;;;;11.70;99.90;;;10.73;100.00;95887.19;10558005;28;1972;-73
2022/10/20 09:22:35;;;;;;;;;;;11.60;99.90;;;10.53;100.00;95882.66;10537496;28;1691;-73
2022/10/20 09:27:41;;;;;;;;;;;11.60;99.90;;;10.31;100.00;95879.44;10525473;28;1620;-73
2022/10/20 09:32:44;;;;;;;;;;;11.40;99.90;;;10.77;100.00;95880.19;10504497;28;1564;-73
2022/10/20 09:37:49;;;;;;;;;;;11.30;99.90;;;10.44;100.00;95899.59;10538021;28;1909;-72
2022/10/20 09:42:51;;;;;;;;;;;11.50;99.90;;;10.67;100.00;95903.59;10537392;28;1644;-74
2022/10/20 09:47:54;;;;;;;;;;;11.40;99.90;;;10.83;100.00;95887.19;10539046;28;1104;-72
2022/10/20 09:52:57;;;;;;;;;;;11.40;99.90;;;11.01;100.00;95885.00;10537610;28;1616;-72
2022/10/20 09:58:00;;;;;;;;;;;11.80;99.90;;;11.05;100.00;95876.09;10541057;28;1986;-74
2022/10/20 10:03:03;;;;;;;;;;;11.90;99.90;;;11.19;100.00;95868.22;10536949;28;1437;-73
2022/10/20 10:08:06;;;;;;;;;;;11.90;99.90;;;11.20;100.00;95875.25;10553511;28;1546;-73
2022/10/20 10:13:09;;;;;;;;;;;11.90;99.90;;;11.77;100.00;95857.75;10538253;28;1739;-72
2022/10/20 10:18:12;;;;;;;;;;;12.30;99.90;;;11.87;100.00;95846.91;10539304;28;1910;-73
2022/10/20 10:23:16;;;;;;;;;;;12.60;99.90;;;12.49;100.00;95849.16;10531599;28;1668;-76
2022/10/20 10:28:18;;;;;;;;;;;12.90;99.90;;;12.40;100.00;95852.44;10509897;28;1386;-73
2022/10/20 10:33:21;;;;;;;;;;;13.20;99.90;;;12.80;100.00;95852.38;10507581;28;1286;-73
2022/10/20 10:38:24;;;;;;;;;;;13.40;99.90;;;13.35;100.00;95839.34;10532154;28;1968;-74
2022/10/20 10:43:29;;;;;;;;;;;13.90;99.90;;;13.93;100.00;95825.56;10537055;28;1749;-74
2022/10/20 10:48:32;;;;;;;;;;;14.30;99.90;;;14.51;100.00;95820.63;10537893;28;1124;-72
2022/10/20 10:53:35;;;;;;;;;;;14.80;99.90;;;14.83;100.00;95813.56;10536377;28;1798;-75
2022/10/20 10:58:38;;;;;;;;;;;15.30;99.90;;;14.26;100.00;95808.31;10536082;28;1901;-74
2022/10/20 11:03:41;;;;;;;;;;;15.30;99.90;;;14.13;100.00;95798.25;10528394;28;1458;-78
2022/10/20 11:08:44;;;;;;;;;;;15.00;99.90;;;14.11;100.00;95799.63;10537498;28;1152;-73
2022/10/20 11:13:47;;;;;;;;;;;15.00;99.90;;;14.36;100.00;95779.47;10535489;28;1707;-73
2022/10/20 11:18:49;;;;;;;;;;;15.10;99.90;;;14.54;100.00;95779.44;10536570;28;1985;-72
2022/10/20 11:23:52;;;;;;;;;;;15.30;99.90;;;14.38;100.00;95761.03;10531781;28;1676;-73
2022/10/20 11:28:55;;;;;;;;;;;15.30;99.90;;;14.60;100.00;95764.72;10511271;28;1172;-73
2022/10/20 11:33:58;;;;;;;;;;;15.40;99.90;;;15.10;100.00;95764.84;10509443;28;1465;-73
2022/10/20 11:39:03;;;;;;;;;;;15.60;99.90;;;15.01;100.00;95758.50;10535145;28;1977;-73
2022/10/20 11:44:05;;;;;;;;;;;15.80;99.90;;;15.47;100.00;95754.84;10534735;28;1703;-72
2022/10/20 11:49:11;;;;;;;;;;;16.10;99.90;;;15.80;100.00;95758.19;10535451;28;1180;-72
2022/10/20 11:54:14;;;;;;;;;;;16.30;99.90;;;16.19;100.00;95749.38;10530982;28;1893;-72
2022/10/20 11:59:16;;;;;;;;;;;16.70;99.90;;;16.07;100.00;95740.19;10535792;28;1975;-72
2022/10/20 12:04:19;;;;;;;;;;;16.80;99.90;;;16.13;100.00;95733.53;10534320;28;1453;-73
2022/10/20 12:09:22;;;;;;;;;;;16.90;99.90;;;16.21;100.00;95730.06;10543627;28;1047;-73
2022/10/20 12:14:25;;;;;;;;;;;17.10;99.90;;;16.07;100.00;95727.44;10529443;28;1723;-73
2022/10/20 12:19:28;;;;;;;;;;;17.10;99.90;;;16.17;100.00;95718.25;10531601;28;1934;-72
2022/10/20 12:24:31;;;;;;;;;;;17.10;99.90;;;16.53;100.00;95720.81;10531150;28;1443;-72
2022/10/20 12:29:35;;;;;;;;;;;17.10;99.90;;;16.55;100.00;95704.25;10507383;28;1140;-71
2022/10/20 12:34:37;;;;;;;;;;;17.40;99.90;;;16.17;100.00;95726.38;10507093;28;1525;-72
2022/10/20 12:39:41;;;;;;;;;;;17.40;99.90;;;15.99;100.00;95722.75;10533023;28;1902;-73
2022/10/20 12:44:45;;;;;;;;;;;17.10;99.90;;;16.04;100.00;95713.72;10530851;28;1632;-73
2022/10/20 12:49:48;;;;;;;;;;;17.00;99.90;;;16.07;100.00;95715.78;10534997;28;999;-74
2022/10/20 12:54:53;;;;;;;;;;;17.00;99.90;;;16.20;100.00;95718.41;10528364;28;1699;-72
2022/10/20 12:59:56;;;;;;;;;;;17.00;99.90;;;16.37;100.00;95703.38;10534137;28;1955;-73
2022/10/20 13:04:59;;;;;;;;;;;17.10;99.90;;;15.68;100.00;95701.81;10529300;28;1651;-72
2022/10/20 13:10:01;;;;;;;;;;;16.80;99.90;;;15.61;100.00;95696.00;10533817;28;1053;-74
2022/10/20 13:15:06;;;;;;;;;;;16.70;99.90;;;15.91;100.00;95704.53;10525463;28;1719;-73
2022/10/20 13:20:08;;;;;;;;;;;16.60;99.90;;;15.77;100.00;95704.59;10536011;28;1913;-72
2022/10/20 13:25:11;;;;;;;;;;;16.60;99.90;;;15.74;100.00;95704.41;10535670;28;1652;-73
2022/10/20 13:30:14;;;;;;;;;;;16.60;99.90;;;15.83;100.00;95708.78;10509041;28;1077;-73
2022/10/20 13:35:17;;;;;;;;;;;16.60;99.90;;;15.80;100.00;95714.03;10527051;28;1698;-73
2022/10/20 13:40:20;;;;;;;;;;;16.70;99.90;;;15.94;100.00;95722.88;10540716;28;1984;-73
2022/10/20 13:45:25;;;;;;;;;;;16.60;99.90;;;16.14;100.00;95727.00;10539645;28;1675;-73
2022/10/20 13:50:28;;;;;;;;;;;16.70;99.90;;;15.83;100.00;95718.81;10539742;28;1593;-73
2022/10/20 13:55:31;;;;;;;;;;;16.80;99.90;;;16.05;100.00;95718.81;10539095;28;1532;-73
2022/10/20 14:00:34;;;;;;;;;;;16.80;99.90;;;16.04;100.00;95730.78;10539986;28;1902;-74
2022/10/20 14:05:37;;;;;;;;;;;16.90;99.90;;;15.77;100.00;95736.31;10539084;28;1950;-77
2022/10/20 14:10:40;;;;;;;;;;;16.70;99.90;;;16.13;100.00;95738.97;10540461;28;836;-79
2022/10/20 14:15:43;;;;;;;;;;;16.80;99.90;;;16.06;100.00;95744.81;10538799;28;1678;-73
2022/10/20 14:20:46;;;;;;;;;;;16.90;99.90;;;16.00;100.00;95751.47;10539120;28;1984;-73
2022/10/20 14:25:48;;;;;;;;;;;16.90;99.90;;;16.08;100.00;95748.00;10532020;28;1723;-74
2022/10/20 14:30:51;;;;;;;;;;;16.90;99.90;;;15.95;100.00;95746.16;10500473;28;1219;-74
2022/10/20 14:35:54;;;;;;;;;;;16.80;99.90;;;15.57;100.00;95746.47;10530595;28;1557;-74
2022/10/20 14:40:57;;;;;;;;;;;16.50;99.90;;;15.35;100.00;95751.88;10537735;28;1914;-76
2022/10/20 14:46:00;;;;;;;;;;;16.30;99.90;;;15.35;100.00;95751.88;10537979;28;1180;-73
2022/10/20 14:51:03;;;;;;;;;;;16.20;99.90;;;15.10;100.00;95729.63;10536319;28;1676;-74
2022/10/20 14:56:05;;;;;;;;;;;16.00;99.90;;;14.62;100.00;95731.16;10537377;28;1505;-73
2022/10/20 15:01:08;;;;;;;;;;;15.90;99.90;;;14.69;100.00;95731.56;10537102;28;1975;-75
2022/10/20 15:06:11;;;;;;;;;;;15.70;99.90;;;14.75;100.00;95733.06;10529275;28;1672;-73
2022/10/20 15:11:19;;;;;;;;;;;15.60;99.90;;;14.64;100.00;95748.72;10529530;28;1687;-72
2022/10/20 15:16:22;;;;;;;;;;;15.60;99.90;;;14.80;100.00;95741.88;10538300;28;1207;-74
2022/10/20 15:21:25;;;;;;;;;;;15.70;99.90;;;14.65;100.00;95707.03;10536013;28;1910;-73
2022/10/20 15:26:28;;;;;;;;;;;15.60;99.90;;;14.47;100.00;95697.91;10529019;28;1762;-75
2022/10/20 15:31:31;;;;;;;;;;;15.40;99.90;;;14.22;100.00;95688.31;10494989;28;1140;-73
2022/10/20 15:36:35;;;;;;;;;;;15.30;99.90;;;13.99;100.00;95689.28;10524495;28;1556;-73
2022/10/20 15:41:44;;;;;;;;;;;15.10;99.90;;;13.83;100.00;95680.63;10533667;28;1918;-73
2022/10/20 15:46:51;;;;;;;;;;;14.90;99.90;;;13.60;100.00;95693.16;10531681;28;1690;-72
2022/10/20 15:51:54;;;;;;;;;;;14.70;99.90;;;13.58;100.00;95683.75;10531552;28;1636;-72
2022/10/20 15:56:57;;;;;;;;;;;14.60;99.90;;;13.37;100.00;95673.28;10531082;28;1529;-73
2022/10/20 16:02:00;;;;;;;;;;;14.40;99.90;;;13.21;100.00;95659.19;10535387;28;1967;-72
2022/10/20 16:07:03;;;;;;;;;;;14.30;99.90;;;13.14;100.00;95652.53;10534772;28;1628;-71
2022/10/20 16:12:06;;;;;;;;;;;14.60;99.90;;;13.07;100.00;95657.50;10530827;28;1684;-71
2022/10/20 16:17:08;;;;;;;;;;;14.10;99.90;;;13.04;100.00;95661.59;10533894;28;1106;-72
2022/10/20 16:22:11;;;;;;;;;;;14.00;99.90;;;12.99;100.00;95670.56;10528353;28;1918;-75
2022/10/20 16:27:14;;;;;;;;;;;14.00;99.90;;;12.97;100.00;95661.94;10521984;28;1446;-72
2022/10/20 16:32:17;;;;;;;;;;;13.90;99.90;;;12.91;100.00;95660.41;10496085;28;1797;-73
2022/10/20 16:37:20;;;;;;;;;;;13.90;99.90;;;12.86;100.00;95647.00;10526045;28;1043;-74
2022/10/20 16:42:22;;;;;;;;;;;13.80;99.90;;;12.73;100.00;95649.63;10529831;28;2064;-74
2022/10/20 16:47:25;;;;;;;;;;;13.70;99.90;;;12.74;100.00;95633.13;10534233;28;1095;-74
2022/10/20 16:52:28;;;;;;;;;;;13.70;99.90;;;12.61;100.00;95641.94;10527420;28;1023;-73
2022/10/20 16:57:36;;;;;;;;;;;13.60;99.90;;;12.61;100.00;95623.06;10541527;28;1635;-73
2022/10/20 17:02:41;;;;;;;;;;;13.60;99.90;;;12.56;100.00;95615.03;10540761;28;1902;-74
2022/10/20 17:07:44;;;;;;;;;;;13.60;99.90;;;12.55;100.00;95621.53;10519794;28;1311;-73
2022/10/20 17:12:47;;;;;;;;;;;13.50;99.90;;;12.57;100.00;95628.22;10530759;28;1659;-73
2022/10/20 17:17:55;;;;;;;;;;;13.50;99.90;;;12.53;100.00;95631.78;10541560;28;853;-72
2022/10/20 17:22:58;;;;;;;;;;;13.40;99.90;;;12.49;100.00;95630.78;10532842;28;1906;-74
2022/10/20 17:28:00;;;;;;;;;;;13.50;99.90;;;12.47;100.00;95639.16;10522791;28;1847;-74
2022/10/20 17:33:03;;;;;;;;;;;13.40;99.90;;;12.52;100.00;95646.34;10511218;28;1958;-75
2022/10/20 17:38:06;;;;;;;;;;;13.40;99.90;;;12.49;100.00;95649.63;10546637;28;1109;-75
2022/10/20 17:43:09;;;;;;;;;;;13.40;99.90;;;12.60;100.00;95645.72;10535541;28;1989;-76
2022/10/20 17:48:12;;;;;;;;;;;13.40;99.90;;;12.48;100.00;95653.44;10540044;28;1172;-74
2022/10/20 17:53:15;;;;;;;;;;;13.50;99.90;;;12.39;100.00;95626.28;10536017;28;1632;-73
2022/10/20 17:58:17;;;;;;;;;;;13.40;99.90;;;12.27;100.00;95640.16;10538770;28;1437;-74
2022/10/20 18:03:20;;;;;;;;;;;13.30;99.90;;;12.29;100.00;95616.44;10531599;28;1909;-74
2022/10/20 18:08:23;;;;;;;;;;;13.30;99.90;;;12.14;100.00;95613.91;10542995;28;1145;-72
2022/10/20 18:13:26;;;;;;;;;;;13.20;99.90;;;12.09;100.00;95604.03;10536977;28;1644;-73
2022/10/20 18:18:29;;;;;;;;;;;13.10;99.90;;;12.10;100.00;95585.97;10540726;28;909;-73
2022/10/20 18:23:32;;;;;;;;;;;13.00;99.90;;;12.00;100.00;95580.69;10533430;28;1965;-74
2022/10/20 18:28:37;;;;;;;;;;;13.00;99.90;;;11.95;100.00;95591.50;10518552;28;1861;-73
2022/10/20 18:33:42;;;;;;;;;;;12.90;99.90;;;11.93;100.00;95601.78;10503430;28;1426;-73
2022/10/20 18:38:45;;;;;;;;;;;12.90;99.90;;;11.89;100.00;95610.41;10537949;28;1172;-72
2022/10/20 18:43:48;;;;;;;;;;;12.90;99.90;;;11.99;100.00;95604.13;10535057;28;1918;-73
2022/10/20 18:48:56;;;;;;;;;;;12.80;99.90;;;11.83;100.00;95598.13;10538170;28;1187;-73
2022/10/20 18:53:59;;;;;;;;;;;12.80;99.90;;;11.93;100.00;95574.84;10529450;28;1723;-73
2022/10/20 18:59:02;;;;;;;;;;;12.80;99.90;;;11.89;100.00;95594.25;10537735;28;1445;-72
2022/10/20 19:04:05;;;;;;;;;;;12.80;99.90;;;11.88;100.00;95595.34;10536107;28;1918;-73
2022/10/20 19:09:07;;;;;;;;;;;12.80;99.90;;;11.70;100.00;95590.66;10536654;28;1157;-72
2022/10/20 19:14:10;;;;;;;;;;;12.70;99.90;;;11.67;100.00;95595.81;10535704;28;1706;-74
2022/10/20 19:19:13;;;;;;;;;;;12.80;99.90;;;11.66;100.00;95584.25;10536629;28;1215;-72
2022/10/20 19:24:16;;;;;;;;;;;12.60;99.90;;;11.54;100.00;95589.22;10530476;28;1902;-73
2022/10/20 19:29:19;;;;;;;;;;;12.50;99.90;;;11.54;100.00;95583.81;10511485;28;1380;-73
2022/10/20 19:34:21;;;;;;;;;;;12.50;99.90;;;11.58;100.00;95579.50;10514740;28;1675;-75
2022/10/20 19:39:25;;;;;;;;;;;12.50;99.90;;;11.36;100.00;95586.13;10537460;28;983;-73
2022/10/20 19:44:29;;;;;;;;;;;12.40;99.90;;;11.33;100.00;95581.31;10532180;28;1985;-72
2022/10/20 19:49:32;;;;;;;;;;;12.30;99.90;;;11.28;100.00;95586.75;10531821;28;1680;-74
2022/10/20 19:54:35;;;;;;;;;;;12.20;99.90;;;11.19;100.00;95593.81;10533068;28;1617;-73
2022/10/20 19:59:38;;;;;;;;;;;12.20;99.90;;;11.30;100.00;95591.84;10533994;28;1381;-74
2022/10/20 20:04:41;;;;;;;;;;;12.20;99.90;;;11.36;100.00;95599.59;10527834;28;1930;-73
2022/10/20 20:09:44;;;;;;;;;;;12.30;99.90;;;11.29;100.00;95609.88;10536215;28;1184;-72
2022/10/20 20:14:52;;;;;;;;;;;12.30;99.90;;;11.30;100.00;95600.72;10528318;28;1632;-73
2022/10/20 20:19:56;;;;;;;;;;;12.30;99.90;;;11.27;100.00;95589.72;10534009;28;1963;-73
2022/10/20 20:24:59;;;;;;;;;;;12.20;99.90;;;11.24;100.00;95607.22;10528390;28;1513;-72
2022/10/20 20:30:03;;;;;;;;;;;12.20;99.90;;;11.18;100.00;95613.72;10508364;28;1160;-73
2022/10/20 20:35:06;;;;;;;;;;;12.10;99.90;;;11.13;100.00;95616.44;10529182;28;1620;-73
2022/10/20 20:40:09;;;;;;;;;;;12.10;99.90;;;11.20;100.00;95638.47;10544717;28;1887;-72
2022/10/20 20:45:12;;;;;;;;;;;12.10;99.90;;;11.14;100.00;95638.78;10538556;28;1703;-73
2022/10/20 20:50:15;;;;;;;;;;;12.10;99.90;;;11.07;100.00;95639.91;10535534;28;1708;-73
2022/10/20 20:55:18;;;;;;;;;;;12.00;99.90;;;11.01;100.00;95648.28;10541215;28;1633;-72
2022/10/20 21:00:22;;;;;;;;;;;12.10;99.90;;;10.89;100.00;95658.59;10543849;28;2258;-72
2022/10/20 21:05:26;;;;;;;;;;;11.90;99.90;;;10.90;100.00;95681.72;10543489;28;1636;-77
2022/10/20 21:10:30;;;;;;;;;;;11.90;99.90;;;10.77;100.00;95681.22;10546868;28;816;-73
2022/10/20 21:15:33;;;;;;;;;;;11.80;99.90;;;10.73;100.00;95687.44;10540745;28;1663;-74
2022/10/20 21:20:36;;;;;;;;;;;11.80;99.90;;;10.68;100.00;95698.19;10543571;28;1906;-72
2022/10/20 21:25:39;;;;;;;;;;;11.70;99.90;;;10.61;100.00;95701.19;10532178;28;1501;-74
2022/10/20 21:30:42;;;;;;;;;;;11.60;99.90;;;10.59;100.00;95714.09;10505431;28;1110;-75
2022/10/20 21:35:46;;;;;;;;;;;11.60;99.90;;;10.59;100.00;95707.94;10530279;28;1680;-73
2022/10/20 21:40:49;;;;;;;;;;;11.60;99.90;;;10.72;100.00;95726.16;10539526;28;1986;-72
2022/10/20 21:45:52;;;;;;;;;;;11.60;99.90;;;10.86;100.00;95739.81;10533297;28;1824;-73
2022/10/20 21:50:55;;;;;;;;;;;11.70;99.90;;;10.96;100.00;95735.19;10540114;28;1696;-72
2022/10/20 21:55:58;;;;;;;;;;;11.80;99.90;;;10.95;100.00;95728.22;10551893;28;1517;-72
2022/10/20 22:01:01;;;;;;;;;;;11.80;99.90;;;10.96;100.00;95723.63;10539664;28;1992;-72
2022/10/20 22:06:04;;;;;;;;;;;11.80;99.90;;;11.07;100.00;95746.72;10533008;28;1639;-73
2022/10/20 22:11:07;;;;;;;;;;;11.90;99.90;;;11.07;100.00;95733.25;10540032;28;848;-73
2022/10/20 22:16:10;;;;;;;;;;;11.80;99.90;;;11.09;100.00;95729.19;10534110;28;1644;-72
2022/10/20 22:21:16;;;;;;;;;;;11.90;99.90;;;11.13;100.00;95739.41;10535370;28;1914;-73
2022/10/20 22:26:19;;;;;;;;;;;12.00;99.90;;;11.07;100.00;95749.41;10526808;28;1517;-73
2022/10/20 22:31:22;;;;;;;;;;;12.00;99.90;;;11.07;100.00;95741.34;10496610;28;1678;-74
2022/10/20 22:36:25;;;;;;;;;;;11.80;99.90;;;11.07;100.00;95730.56;10532876;28;1486;-73
2022/10/20 22:41:28;;;;;;;;;;;11.90;99.90;;;10.98;100.00;95719.56;10538817;28;1902;-73
2022/10/20 22:46:31;;;;;;;;;;;11.90;99.90;;;11.02;100.00;95707.19;10533217;28;1695;-73
2022/10/20 22:51:34;;;;;;;;;;;11.80;99.90;;;11.12;100.00;95700.94;10537918;28;1120;-74
2022/10/20 22:56:37;;;;;;;;;;;12.00;99.90;;;11.22;100.00;95700.88;10531777;28;1687;-74
2022/10/20 23:01:40;;;;;;;;;;;12.00;99.90;;;11.22;100.00;95710.84;10537561;28;1913;-74